Albany, Iowa
Current Conditions -  °F | °C
As of 4:15 PM on Monday 26 Jan 2015 (Local Time) from KOLZ Reporting Station
Overcast Overcast  
Wind Chill: 32°   Ceiling: 6000
Heat Index: 41°   Visibility: 10mi
Dew Point: 36°   Wind: 20mph
Humidity: 81%   Direction: 320°NW
Pressure: 29.79"   Gusts: 25mph
Location:  42.8663°N, 91.8396°W
Report Text: KOLZ 262215Z AUTO 32017G22KT 10SM FEW037 OVC060 05/02 A2979 RMK AO2
Loading
Personal Weather Stations






























Interactive Weather Map New forecast layout! Learn more

10-Day Weather Forecast

Advertisements
Track Severe Weather on mobile